Ladd Junction, Illinois
Current Conditions -  °F | °C
As of 3:15 AM on Thursday 27 Nov 2014 (Local Time) from KVYS Reporting Station
Haze Haze  
Wind Chill: 13°   Ceiling: 8500
Heat Index: 23°   Visibility: 5mi
Dew Point: 19°   Wind: 9mph
Humidity: 86%   Direction: 310°NW
Pressure: 30.29"   Gusts: NA
Location:  41.3817°N, 89.2146°W
Report Text: KVYS 270915Z AUTO 31008KT 5SM BR OVC085 M05/M07 A3029 RMK AO2 T10501070
Loading
Personal Weather Stations






























Interactive Weather Map New forecast layout! Learn more

10-Day Weather Forecast

Advertisements
Track Severe Weather on mobile